Time;durP1;ratioP1;P1;durP2;ratioP2;P2;SDS_P1;SDS_P2;PMS_P1;PMS_P2;Temp;Humidity;BMP_temperature;BMP_pressure;BME280_temperature;BME280_humidity;BME280_pressure;Samples;Min_cycle;Max_cycle;Signal;HPM_P1;HPM_P2
2021/09/27 00:00:40;;;;;;;12.70;10.80;;;;;;;9.72;81.36;97793.68;117387;1177;59221;-74
2021/09/27 00:03:10;;;;;;;12.10;9.90;;;;;;;9.68;81.30;97792.81;117052;1177;58723;-74
2021/09/27 00:05:40;;;;;;;9.20;6.60;;;;;;;9.67;81.58;97793.77;117350;1176;69489;-72
2021/09/27 00:08:38;;;;;;;8.20;6.30;;;;;;;9.66;81.57;97791.73;117056;1178;69203;-72
2021/09/27 00:11:20;;;;;;;11.90;9.40;;;;;;;9.67;81.08;97789.96;117198;1177;69240;-73
2021/09/27 00:14:02;;;;;;;13.90;10.40;;;;;;;9.67;82.95;97788.54;117358;1176;59165;-72
2021/09/27 00:16:32;;;;;;;11.20;8.60;;;;;;;9.67;83.02;97785.96;117319;1177;58735;-73
2021/09/27 00:19:02;;;;;;;14.60;11.10;;;;;;;9.65;82.63;97785.54;117250;1176;70338;-73
2021/09/27 00:21:34;;;;;;;15.10;12.00;;;;;;;9.60;84.07;97785.18;117331;1177;68390;-74
2021/09/27 00:24:05;;;;;;;10.40;7.30;;;;;;;9.56;83.75;97784.05;117325;1177;69240;-74
2021/09/27 00:26:36;;;;;;;10.50;7.10;;;;;;;9.54;82.51;97782.08;117388;1176;58719;-71
2021/09/27 00:29:06;;;;;;;8.80;6.00;;;;;;;9.54;81.91;97785.75;117389;1177;58717;-73
2021/09/27 00:31:36;;;;;;;8.90;6.50;;;;;;;9.53;81.35;97783.87;117313;1176;70464;-73
2021/09/27 00:34:05;;;;;;;10.60;8.10;;;;;;;9.52;81.29;97780.98;117349;1177;69529;-71
2021/09/27 00:36:36;;;;;;;9.90;7.40;;;;;;;9.51;81.10;97779.80;117308;1176;68282;-74
2021/09/27 00:39:07;;;;;;;11.70;8.30;;;;;;;9.52;80.77;97779.95;117066;1177;58709;-74
2021/09/27 00:41:38;;;;;;;12.30;9.10;;;;;;;9.49;81.76;97776.48;117130;1177;58707;-71
2021/09/27 00:44:09;;;;;;;12.40;10.20;;;;;;;9.43;82.74;97775.97;117359;1177;69717;-73
2021/09/27 00:46:39;;;;;;;15.00;11.60;;;;;;;9.39;81.85;97778.88;117370;1176;68959;-75
2021/09/27 00:49:09;;;;;;;13.00;9.30;;;;;;;9.35;82.75;97776.85;117340;1177;68430;-74
2021/09/27 00:51:43;;;;;;;10.80;7.60;;;;;;;9.31;83.24;97774.95;117321;1177;58713;-73
2021/09/27 00:54:25;;;;;;;8.20;6.10;;;;;;;9.30;82.50;97769.16;117388;1176;58704;-74
2021/09/27 00:57:03;;;;;;;14.20;11.50;;;;;;;9.29;83.59;97765.73;117285;1177;69930;-71
2021/09/27 00:59:35;;;;;;;12.00;8.60;;;;;;;9.26;85.54;97767.15;117042;1177;69176;-74
2021/09/27 01:02:05;;;;;;;11.70;10.00;;;;;;;9.28;83.34;97763.16;117416;1176;69134;-73
2021/09/27 01:04:37;;;;;;;12.70;9.90;;;;;;;9.28;84.45;97768.02;117323;1177;58697;-73
2021/09/27 01:07:24;;;;;;;11.50;8.10;;;;;;;9.27;83.53;97765.86;117332;1176;58642;-73
2021/09/27 01:10:34;;;;;;;8.90;6.70;;;;;;;9.27;82.68;97763.39;117078;1177;69843;-73
2021/09/27 01:13:26;;;;;;;9.00;6.00;;;;;;;9.27;82.84;97766.20;117323;1177;69143;-72
2021/09/27 01:16:14;;;;;;;10.50;8.40;;;;;;;9.26;81.83;97764.35;117384;1177;69254;-72
2021/09/27 01:19:15;;;;;;;11.50;8.30;;;;;;;9.25;83.62;97764.08;117377;1177;58697;-72
2021/09/27 01:22:06;;;;;;;10.00;7.60;;;;;;;9.24;82.39;97759.27;117367;1177;58688;-72
2021/09/27 01:25:00;;;;;;;14.00;10.80;;;;;;;9.21;82.25;97757.72;117054;1177;70318;-71
2021/09/27 01:27:56;;;;;;;13.60;11.10;;;;;;;9.14;82.88;97758.27;117317;1177;69024;-71
2021/09/27 01:30:47;;;;;;;10.10;7.70;;;;;;;9.01;83.46;97762.39;117337;1177;68318;-73
2021/09/27 01:33:39;;;;;;;7.00;5.10;;;;;;;8.94;82.23;97764.20;117271;1176;58691;-73
2021/09/27 01:36:19;;;;;;;10.90;9.00;;;;;;;8.91;81.98;97763.01;117310;1177;58688;-71
2021/09/27 01:39:23;;;;;;;10.10;7.60;;;;;;;8.86;82.43;97766.23;117049;1177;70635;-73
2021/09/27 01:42:12;;;;;;;10.20;7.10;;;;;;;8.83;81.69;97767.51;117382;1177;70822;-72
2021/09/27 01:44:45;;;;;;;7.70;5.20;;;;;;;8.81;81.30;97767.40;117434;1176;68263;-74
2021/09/27 01:47:25;;;;;;;10.30;7.90;;;;;;;8.81;81.35;97762.06;117327;1177;58703;-73
2021/09/27 01:50:06;;;;;;;14.40;11.00;;;;;;;8.79;84.36;97758.34;117464;1176;58723;-73
2021/09/27 01:53:08;;;;;;;13.40;10.90;;;;;;;8.76;85.92;97752.77;117027;1177;71520;-73
2021/09/27 01:55:45;;;;;;;8.50;5.70;;;;;;;8.75;85.40;97750.62;117196;1177;69179;-72
2021/09/27 01:58:53;;;;;;;8.70;6.40;;;;;;;8.77;83.00;97744.58;117311;1177;68246;-73
2021/09/27 02:01:40;;;;;;;10.10;7.10;;;;;;;8.80;82.53;97745.27;117335;1177;59129;-71
2021/09/27 02:04:21;;;;;;;9.50;5.60;;;;;;;8.79;82.69;97747.03;117345;1177;58700;-71
2021/09/27 02:06:55;;;;;;;7.70;5.00;;;;;;;8.78;82.08;97745.05;117017;1176;69629;-72
2021/09/27 02:09:33;;;;;;;7.90;5.50;;;;;;;8.76;81.80;97742.76;117394;1176;68968;-74
2021/09/27 02:12:10;;;;;;;10.70;8.90;;;;;;;8.71;82.49;97739.16;117320;1176;69070;-73
2021/09/27 02:14:52;;;;;;;8.50;6.30;;;;;;;8.64;82.70;97739.22;117395;1176;58761;-71
2021/09/27 02:17:40;;;;;;;9.70;6.80;;;;;;;8.60;81.81;97740.02;117407;1176;58714;-73
2021/09/27 02:20:23;;;;;;;8.60;6.70;;;;;;;8.57;81.42;97738.99;117310;1177;69830;-72
2021/09/27 02:23:00;;;;;;;10.50;7.50;;;;;;;8.54;81.59;97739.33;117381;1174;68322;-71
2021/09/27 02:25:34;;;;;;;11.50;8.10;;;;;;;8.51;81.80;97745.09;117321;1172;68251;-73
2021/09/27 02:28:09;;;;;;;12.50;8.60;;;;;;;8.47;83.75;97738.38;117409;1177;58729;-72
2021/09/27 02:31:00;;;;;;;11.60;8.30;;;;;;;8.45;83.78;97737.27;117491;1177;58724;-72
2021/09/27 02:33:51;;;;;;;6.20;5.20;;;;;;;8.43;83.47;97733.70;117386;1170;70536;-73
2021/09/27 02:36:33;;;;;;;9.10;6.20;;;;;;;8.45;81.95;97727.35;117342;1177;68616;-73
2021/09/27 02:39:24;;;;;;;10.90;7.70;;;;;;;8.46;84.31;97722.09;117305;1176;69026;-73
2021/09/27 02:42:17;;;;;;;8.90;6.20;;;;;;;8.39;85.91;97724.39;117381;1176;59091;-73
2021/09/27 02:44:47;;;;;;;8.60;7.50;;;;;;;8.38;84.52;97719.45;117338;1177;58724;-71
2021/09/27 02:47:24;;;;;;;13.00;10.40;;;;;;;8.35;85.37;97715.91;117346;1177;70544;-72
2021/09/27 02:49:57;;;;;;;9.40;6.50;;;;;;;8.34;86.07;97710.97;117322;1176;69177;-73
2021/09/27 02:52:27;;;;;;;6.60;4.40;;;;;;;8.34;84.38;97712.69;117351;1177;69208;-72
2021/09/27 02:54:59;;;;;;;;;;;;;;;8.35;85.02;97711.08;117359;1177;59484;-72
2021/09/27 02:57:44;;;;;;;13.20;9.60;;;;;;;8.32;86.62;97713.17;117370;1176;59470;-72
2021/09/27 03:00:21;;;;;;;7.50;6.30;;;;;;;8.27;84.76;97710.48;117349;1177;71366;-73
2021/09/27 03:03:08;;;;;;;8.20;4.90;;;;;;;8.25;84.16;97703.83;117214;1176;69224;-73
2021/09/27 03:06:03;;;;;;;12.30;9.10;;;;;;;8.23;83.38;97702.23;117366;1177;69148;-72
2021/09/27 03:08:59;;;;;;;14.30;9.30;;;;;;;8.18;84.76;97696.58;117235;1177;59481;-72
2021/09/27 03:11:43;;;;;;;14.00;9.50;;;;;;;8.13;87.57;97698.80;117389;1177;59542;-73
2021/09/27 03:14:47;;;;;;;6.10;5.20;;;;;;;8.14;85.71;97698.21;117300;1176;70748;-72
2021/09/27 03:17:29;;;;;;;9.50;5.90;;;;;;;8.15;84.55;97699.71;117212;1176;68972;-73
2021/09/27 03:20:35;;;;;;;6.70;4.70;;;;;;;8.13;84.03;97689.98;117327;1177;68433;-72
2021/09/27 03:23:29;;;;;;;7.30;5.10;;;;;;;8.09;83.70;97684.96;117348;1177;59600;-72
2021/09/27 03:26:27;;;;;;;9.60;7.90;;;;;;;8.05;85.75;97682.07;117355;1176;59529;-73
2021/09/27 03:29:11;;;;;;;10.50;6.50;;;;;;;8.02;84.92;97685.60;117188;1177;70453;-73
2021/09/27 03:32:09;;;;;;;8.90;6.70;;;;;;;7.99;84.13;97684.37;117160;1176;69026;-73
2021/09/27 03:34:50;;;;;;;19.80;9.20;;;;;;;7.96;84.66;97680.05;117188;1176;69289;-72
2021/09/27 03:37:43;;;;;;;10.40;7.80;;;;;;;7.92;87.66;97675.42;117193;1176;59596;-71
2021/09/27 03:40:48;;;;;;;5.50;4.10;;;;;;;7.90;86.53;97677.05;117361;1176;59536;-73
2021/09/27 03:43:48;;;;;;;6.50;5.20;;;;;;;7.91;85.15;97683.06;117256;1176;70375;-73
2021/09/27 03:46:38;;;;;;;10.70;8.50;;;;;;;7.91;85.76;97688.11;117302;1176;68698;-73
2021/09/27 03:49:22;;;;;;;11.80;9.00;;;;;;;7.88;85.52;97692.62;117034;1177;70274;-72
2021/09/27 03:52:02;;;;;;;25.70;12.60;;;;;;;7.76;86.31;97697.31;117230;1177;59537;-72
2021/09/27 03:54:37;;;;;;;;;;;;;;;7.61;86.02;97695.22;117102;1177;59485;-72
2021/09/27 03:57:21;;;;;;;54.90;11.00;;;;;;;7.51;86.53;97698.88;117172;1173;71378;-73
2021/09/27 04:00:09;;;;;;;15.80;7.60;;;;;;;7.46;87.09;97701.95;117226;1177;69195;-70
2021/09/27 04:02:53;;;;;;;26.40;12.30;;;;;;;7.41;86.01;97702.73;117247;1177;68758;-72
2021/09/27 04:05:34;;;;;;;12.60;8.00;;;;;;;7.35;85.80;97705.14;116973;1177;59522;-74
2021/09/27 04:08:19;;;;;;;13.20;9.10;;;;;;;7.32;85.84;97702.19;117076;1176;60390;-70
2021/09/27 04:10:57;;;;;;;13.40;7.90;;;;;;;7.31;85.58;97697.56;117160;1176;71243;-73
2021/09/27 04:13:42;;;;;;;6.30;4.50;;;;;;;7.34;85.25;97698.98;116996;1177;67575;-73
2021/09/27 04:16:49;;;;;;;7.50;5.80;;;;;;;7.36;83.99;97693.48;117152;1176;68396;-73
2021/09/27 04:19:39;;;;;;;10.20;7.10;;;;;;;7.38;84.20;97694.58;117124;1177;59491;-71
2021/09/27 04:22:15;;;;;;;7.70;6.30;;;;;;;7.34;85.52;97696.71;117172;1177;59516;-73
2021/09/27 04:25:10;;;;;;;8.00;6.50;;;;;;;7.40;85.19;97697.76;117094;1177;71389;-73
2021/09/27 04:27:58;;;;;;;9.70;7.30;;;;;;;7.46;86.25;97699.16;117255;1177;69197;-72
2021/09/27 04:30:49;;;;;;;7.70;6.10;;;;;;;7.49;86.15;97695.67;116942;1177;67320;-73
2021/09/27 04:33:18;;;;;;;8.80;6.20;;;;;;;7.59;86.83;97699.96;116916;1177;59577;-73
2021/09/27 04:36:09;;;;;;;7.60;5.70;;;;;;;7.65;87.12;97701.53;116972;1177;59520;-72
2021/09/27 04:38:39;;;;;;;12.10;9.30;;;;;;;7.71;87.28;97706.77;117022;1177;71366;-72
2021/09/27 04:41:27;;;;;;;;;;;;;;;7.74;87.49;97707.65;116987;1177;68523;-72
2021/09/27 04:44:10;;;;;;;9.90;6.80;;;;;;;7.72;87.21;97706.05;116996;1177;69357;-73
2021/09/27 04:46:53;;;;;;;10.30;7.60;;;;;;;7.71;86.94;97705.56;116947;1177;59546;-72
2021/09/27 04:49:54;;;;;;;9.50;6.50;;;;;;;7.77;87.24;97707.48;117061;1177;59529;-73
2021/09/27 04:52:30;;;;;;;8.00;6.30;;;;;;;7.93;86.60;97711.75;116895;1177;71403;-73
2021/09/27 04:55:12;;;;;;;6.10;5.50;;;;;;;8.12;86.36;97708.42;116988;1178;69103;-71
2021/09/27 04:58:05;;;;;;;5.90;4.20;;;;;;;8.31;86.07;97714.63;117011;1177;69148;-71
2021/09/27 05:01:08;;;;;;;6.20;5.10;;;;;;;8.49;85.74;97715.99;116979;1177;59491;-71
2021/09/27 05:03:43;;;;;;;10.40;9.10;;;;;;;8.70;85.52;97716.14;117092;1177;59514;-73
2021/09/27 05:06:21;;;;;;;10.80;8.50;;;;;;;8.78;83.32;97720.70;117059;1177;70190;-71
2021/09/27 05:09:21;;;;;;;6.90;4.70;;;;;;;8.85;83.29;97715.71;116929;1177;69010;-74
2021/09/27 05:12:02;;;;;;;8.20;5.50;;;;;;;9.04;83.75;97713.21;117099;1177;69222;-74
2021/09/27 05:14:49;;;;;;;6.50;5.50;;;;;;;9.31;83.25;97712.70;117007;1177;59565;-72
2021/09/27 05:17:31;;;;;;;7.10;5.30;;;;;;;9.63;82.19;97706.36;117000;1177;59443;-72
2021/09/27 05:20:14;;;;;;;7.20;5.30;;;;;;;10.01;82.31;97704.39;116920;1177;70545;-74
2021/09/27 05:23:17;;;;;;;6.70;5.80;;;;;;;10.52;81.36;97706.95;116925;1170;69172;-74
2021/09/27 05:26:24;;;;;;;6.60;5.90;;;;;;;11.17;79.83;97714.64;116994;1177;69298;-74
2021/09/27 05:29:22;;;;;;;6.40;5.00;;;;;;;11.77;78.58;97713.51;117040;1176;59506;-73
2021/09/27 05:32:18;;;;;;;5.70;5.00;;;;;;;12.39;79.05;97712.08;117341;1177;59510;-72
2021/09/27 05:35:12;;;;;;;5.80;5.20;;;;;;;12.95;77.10;97719.36;116890;1177;71175;-73
2021/09/27 05:38:08;;;;;;;7.40;6.60;;;;;;;13.35;72.51;97721.84;117308;1176;69133;-73
2021/09/27 05:41:07;;;;;;;8.00;6.70;;;;;;;13.51;72.47;97720.35;117323;1176;69369;-74
2021/09/27 05:43:59;;;;;;;7.40;6.70;;;;;;;13.72;70.03;97720.59;117175;1177;59520;-72
2021/09/27 05:46:31;;;;;;;7.60;6.30;;;;;;;13.88;68.91;97721.45;117257;1177;59558;-74
2021/09/27 05:49:29;;;;;;;12.90;10.70;;;;;;;14.16;67.59;97717.77;117322;1174;71206;-72
2021/09/27 05:52:15;;;;;;;11.70;10.50;;;;;;;13.96;66.16;97720.03;117216;1176;69766;-69
2021/09/27 05:55:10;;;;;;;11.20;10.10;;;;;;;13.96;65.37;97716.58;117031;1177;68355;-72
2021/09/27 05:58:11;;;;;;;11.10;9.80;;;;;;;14.17;64.99;97716.61;117259;1176;59529;-74
2021/09/27 06:00:59;;;;;;;13.60;9.30;;;;;;;14.40;64.47;97717.15;117211;1176;59536;-73
2021/09/27 06:03:35;;;;;;;10.40;9.10;;;;;;;14.90;65.15;97715.19;117326;1176;71474;-72
2021/09/27 06:06:16;;;;;;;9.80;8.80;;;;;;;15.45;61.72;97715.18;117281;1177;69200;-72
2021/09/27 06:09:18;;;;;;;13.00;10.10;;;;;;;15.80;60.54;97718.28;117256;1177;69384;-71
2021/09/27 06:12:08;;;;;;;10.80;9.70;;;;;;;15.87;60.40;97720.64;117347;1175;59525;-73
2021/09/27 06:14:37;;;;;;;10.70;8.90;;;;;;;15.90;60.57;97711.73;117219;1176;59503;-72
2021/09/27 06:17:12;;;;;;;7.50;6.20;;;;;;;15.79;60.95;97710.33;117264;1177;71183;-73
2021/09/27 06:20:10;;;;;;;6.90;5.90;;;;;;;16.07;63.99;97703.34;117195;1177;67343;-73
2021/09/27 06:22:57;;;;;;;8.00;7.20;;;;;;;16.53;62.23;97691.39;117198;1177;69053;-73
2021/09/27 06:25:49;;;;;;;8.10;6.50;;;;;;;17.04;60.20;97684.15;117313;1176;59570;-74
2021/09/27 06:28:34;;;;;;;6.70;5.70;;;;;;;17.66;61.49;97687.00;117216;1176;59519;-76
2021/09/27 06:31:24;;;;;;;7.20;6.40;;;;;;;18.11;57.22;97686.70;117051;1177;70733;-73
2021/09/27 06:33:53;;;;;;;8.90;8.00;;;;;;;18.28;55.87;97691.64;117025;1177;68867;-72
2021/09/27 06:36:28;;;;;;;8.50;7.70;;;;;;;18.32;56.93;97689.52;117339;1176;69365;-72
2021/09/27 06:39:00;;;;;;;9.30;7.70;;;;;;;18.30;55.63;97694.95;117007;1176;59535;-72
2021/09/27 06:41:33;;;;;;;8.10;7.20;;;;;;;18.25;56.08;97702.36;117291;1176;59529;-72
2021/09/27 06:44:03;;;;;;;8.40;7.30;;;;;;;18.38;55.73;97707.12;117127;1172;71367;-72
2021/09/27 06:46:32;;;;;;;10.50;7.60;;;;;;;18.44;55.95;97714.42;117276;1176;69240;-73
2021/09/27 06:49:01;;;;;;;9.20;7.90;;;;;;;18.59;55.31;97722.31;117298;1177;68517;-73
2021/09/27 06:51:36;;;;;;;10.30;7.70;;;;;;;18.68;55.34;97723.18;117341;1176;59465;-75
2021/09/27 06:54:05;;;;;;;7.60;6.60;;;;;;;18.13;56.46;97725.27;117302;1177;59609;-72
2021/09/27 06:56:35;;;;;;;11.80;7.90;;;;;;;17.87;57.83;97726.39;117297;1175;71260;-73
2021/09/27 06:59:05;;;;;;;9.40;6.80;;;;;;;17.55;59.40;97729.29;117295;1177;69231;-72
2021/09/27 07:01:35;;;;;;;10.30;6.40;;;;;;;17.23;60.83;97727.30;117205;1176;69359;-72
2021/09/27 07:04:10;;;;;;;7.80;6.60;;;;;;;17.39;60.66;97728.56;117298;1176;59529;-72
2021/09/27 07:06:45;;;;;;;6.00;5.10;;;;;;;17.74;59.98;97725.67;117373;1176;59548;-73
2021/09/27 07:09:14;;;;;;;10.20;8.40;;;;;;;18.04;58.01;97728.15;117350;1176;71290;-72
2021/09/27 07:11:44;;;;;;;9.50;7.00;;;;;;;18.23;58.20;97727.80;117288;1177;69028;-73
2021/09/27 07:14:13;;;;;;;8.00;7.20;;;;;;;18.40;56.93;97728.41;117301;1175;69225;-72
2021/09/27 07:16:42;;;;;;;6.60;5.10;;;;;;;18.58;56.54;97729.79;117323;1177;59517;-72
2021/09/27 07:19:12;;;;;;;8.90;6.40;;;;;;;19.49;54.68;97726.40;117249;1177;59545;-73
2021/09/27 07:21:43;;;;;;;8.50;6.80;;;;;;;20.16;53.46;97728.84;117131;1176;70763;-72
2021/09/27 07:24:13;;;;;;;10.20;7.10;;;;;;;20.24;51.14;97727.55;117228;1177;69196;-72
2021/09/27 07:26:42;;;;;;;8.80;6.60;;;;;;;20.47;51.92;97721.64;117308;1177;68582;-71
2021/09/27 07:29:11;;;;;;;8.20;6.10;;;;;;;20.44;50.35;97722.92;117352;1176;59487;-71
2021/09/27 07:31:40;;;;;;;;;;;;;;;20.36;50.26;97721.36;117259;1177;59510;-72
2021/09/27 07:34:10;;;;;;;7.90;6.00;;;;;;;20.62;50.10;97718.95;117010;1177;70431;-73
2021/09/27 07:36:40;;;;;;;6.20;5.30;;;;;;;20.73;49.13;97714.63;117198;1177;69242;-73
2021/09/27 07:39:10;;;;;;;;;;;;;;;20.96;48.44;97706.81;117203;1177;69257;-74
2021/09/27 07:41:39;;;;;;;5.10;4.50;;;;;;;21.29;48.00;97710.80;117170;1177;59526;-71
2021/09/27 07:44:14;;;;;;;6.90;4.90;;;;;;;21.99;48.53;97703.74;116959;1179;59534;-74
2021/09/27 07:46:45;;;;;;;9.10;4.90;;;;;;;22.69;46.91;97698.65;116947;1177;71372;-75
2021/09/27 07:49:15;;;;;;;;;;;;;;;23.07;46.43;97693.98;116969;1177;69206;-75
2021/09/27 07:51:45;;;;;;;4.50;3.60;;;;;;;23.33;43.26;97691.48;117165;1176;69619;-73
2021/09/27 07:54:20;;;;;;;7.10;5.10;;;;;;;23.45;43.21;97685.31;116981;1180;59551;-74
2021/09/27 07:56:51;;;;;;;4.90;3.90;;;;;;;23.50;43.75;97685.58;116907;1177;59580;-75
2021/09/27 07:59:21;;;;;;;6.20;5.30;;;;;;;23.93;43.71;97681.73;116959;1174;70538;-74
2021/09/27 08:01:52;;;;;;;4.30;3.80;;;;;;;24.32;42.47;97677.21;116994;1177;69743;-75
2021/09/27 08:04:22;;;;;;;4.60;4.10;;;;;;;24.78;42.44;97673.71;116881;1177;68388;-75
2021/09/27 08:06:52;;;;;;;5.20;4.70;;;;;;;25.24;42.03;97674.13;116958;1177;59516;-73
2021/09/27 08:09:23;;;;;;;6.00;4.40;;;;;;;25.53;39.90;97671.44;116865;1177;59627;-75
2021/09/27 08:11:53;;;;;;;4.50;3.80;;;;;;;25.97;39.30;97673.70;117144;1176;71668;-75
2021/09/27 08:14:23;;;;;;;4.50;3.60;;;;;;;26.42;38.20;97673.89;116912;1177;69133;-75
2021/09/27 08:16:58;;;;;;;5.20;4.00;;;;;;;26.39;36.66;97676.52;117060;1177;68473;-74
2021/09/27 08:19:29;;;;;;;3.90;3.40;;;;;;;26.55;36.18;97675.67;117187;1177;59529;-74
2021/09/27 08:21:59;;;;;;;5.00;4.40;;;;;;;26.61;36.66;97673.91;116737;1179;59806;-71
2021/09/27 08:24:37;;;;;;;6.90;4.40;;;;;;;26.34;37.18;97675.32;117114;1176;71910;-75
2021/09/27 08:27:13;;;;;;;5.60;4.40;;;;;;;26.34;36.39;97671.61;116936;1177;68261;-75
2021/09/27 08:29:44;;;;;;;4.90;4.40;;;;;;;26.53;37.36;97673.52;116985;1170;68982;-73
2021/09/27 08:32:14;;;;;;;4.10;3.10;;;;;;;26.77;36.55;97675.50;117247;1177;59583;-74
2021/09/27 08:34:43;;;;;;;;;;;;;;;27.13;36.65;97670.10;117313;1177;59523;-74
2021/09/27 08:37:12;;;;;;;4.90;3.80;;;;;;;27.34;34.70;97668.98;117259;1177;71744;-73
2021/09/27 08:39:46;;;;;;;4.20;3.50;;;;;;;27.05;33.86;97667.95;117262;1177;69213;-74
2021/09/27 08:42:29;;;;;;;5.00;4.10;;;;;;;27.08;34.02;97663.04;117241;1177;69123;-75
2021/09/27 08:45:12;;;;;;;7.30;3.90;;;;;;;26.88;33.96;97659.55;116945;1177;59583;-73
2021/09/27 08:48:19;;;;;;;4.60;3.90;;;;;;;26.46;35.08;97662.00;117010;1177;59582;-72
2021/09/27 08:50:49;;;;;;;4.50;4.10;;;;;;;26.38;35.43;97658.38;116848;1177;71325;-75
2021/09/27 08:53:35;;;;;;;5.90;4.50;;;;;;;26.58;35.38;97656.23;116941;1177;69199;-74
2021/09/27 08:56:29;;;;;;;4.10;3.60;;;;;;;26.72;35.17;97653.48;117120;1177;68670;-76
2021/09/27 08:59:19;;;;;;;5.40;3.60;;;;;;;27.07;34.93;97654.17;116955;1177;59516;-75
2021/09/27 09:02:16;;;;;;;5.00;3.70;;;;;;;27.28;34.83;97648.36;116949;1177;59465;-75
2021/09/27 09:05:06;;;;;;;5.50;4.20;;;;;;;27.63;33.68;97651.86;117195;1177;70541;-74
2021/09/27 09:08:05;;;;;;;3.60;3.10;;;;;;;27.80;32.88;97651.24;117051;1177;68537;-74
2021/09/27 09:11:01;;;;;;;3.90;3.30;;;;;;;28.05;32.96;97647.55;116937;1177;69097;-75
2021/09/27 09:13:43;;;;;;;4.10;3.70;;;;;;;27.85;33.46;97646.48;116926;1177;59593;-73
2021/09/27 09:16:18;;;;;;;4.00;3.30;;;;;;;28.42;31.94;97638.02;117146;1177;59542;-74
2021/09/27 09:18:54;;;;;;;4.80;3.60;;;;;;;28.38;31.96;97641.84;116948;1177;71286;-73
2021/09/27 09:21:33;;;;;;;5.90;3.50;;;;;;;28.52;31.99;97632.46;116864;1177;69215;-73
2021/09/27 09:24:09;;;;;;;5.10;4.20;;;;;;;28.79;31.50;97632.34;117099;1175;69849;-75
2021/09/27 09:26:50;;;;;;;4.30;3.60;;;;;;;28.78;31.77;97630.11;116959;1177;59513;-74
2021/09/27 09:29:26;;;;;;;5.30;3.20;;;;;;;29.08;31.23;97628.60;117030;1175;59526;-74
2021/09/27 09:32:00;;;;;;;3.90;3.30;;;;;;;29.38;30.83;97631.45;116977;1177;72539;-78
2021/09/27 09:34:35;;;;;;;6.10;4.10;;;;;;;29.75;30.79;97625.08;117010;1176;69228;-75
2021/09/27 09:37:16;;;;;;;5.00;4.20;;;;;;;29.88;30.20;97623.47;116910;1178;69764;-77
2021/09/27 09:40:21;;;;;;;4.20;3.30;;;;;;;30.11;30.33;97625.14;116956;1176;59609;-75
2021/09/27 09:43:00;;;;;;;5.30;3.90;;;;;;;30.61;28.77;97623.67;116780;1177;59540;-74
2021/09/27 09:45:38;;;;;;;4.60;3.60;;;;;;;30.37;28.58;97624.85;117195;1177;70747;-76
2021/09/27 09:48:22;;;;;;;4.90;4.10;;;;;;;29.97;29.79;97617.83;117044;1177;69352;-75
2021/09/27 09:50:55;;;;;;;4.90;3.10;;;;;;;29.95;29.52;97619.39;117052;1177;68606;-76
2021/09/27 09:53:32;;;;;;;5.00;3.90;;;;;;;29.76;28.99;97613.20;116977;1177;59535;-76
2021/09/27 09:56:07;;;;;;;4.90;3.60;;;;;;;29.62;29.68;97618.30;116957;1176;59500;-74
2021/09/27 09:58:43;;;;;;;4.10;3.70;;;;;;;29.82;29.35;97617.80;117341;1177;71436;-74
2021/09/27 10:01:35;;;;;;;4.30;3.70;;;;;;;29.67;29.38;97610.13;117351;1175;69066;-75
2021/09/27 10:04:21;;;;;;;4.60;3.70;;;;;;;30.13;29.23;97604.82;117305;1176;69344;-75
2021/09/27 10:07:14;;;;;;;4.40;4.00;;;;;;;30.48;28.92;97600.89;117259;1176;59500;-75
2021/09/27 10:09:56;;;;;;;4.60;3.40;;;;;;;30.04;28.19;97598.88;117210;1176;59539;-74
2021/09/27 10:12:43;;;;;;;3.80;3.40;;;;;;;30.43;28.09;97597.63;117400;1175;71400;-75
2021/09/27 10:15:35;;;;;;;3.90;3.20;;;;;;;30.74;27.26;97596.92;117217;1176;69044;-75
2021/09/27 10:18:14;;;;;;;4.30;3.40;;;;;;;30.78;27.15;97592.44;117072;1176;68323;-74
2021/09/27 10:20:57;;;;;;;4.00;3.00;;;;;;;30.96;26.79;97591.08;117189;1170;59541;-74
2021/09/27 10:23:31;;;;;;;4.50;4.10;;;;;;;31.44;26.81;97587.29;117239;1176;59616;-74
2021/09/27 10:26:38;;;;;;;4.20;3.10;;;;;;;31.25;26.92;97578.97;117222;1177;69470;-77
2021/09/27 10:29:11;;;;;;;4.10;3.40;;;;;;;31.64;25.75;97573.44;117061;1177;69237;-75
2021/09/27 10:32:04;;;;;;;3.30;2.90;;;;;;;31.38;25.73;97575.95;117379;1176;69333;-74
2021/09/27 10:34:34;;;;;;;3.90;2.60;;;;;;;31.81;25.09;97579.65;117243;1177;59580;-74
2021/09/27 10:37:22;;;;;;;2.90;2.60;;;;;;;32.14;25.04;97570.13;117276;1176;59538;-74
2021/09/27 10:39:54;;;;;;;5.80;4.10;;;;;;;32.72;24.36;97563.34;117233;1176;70634;-74
2021/09/27 10:42:39;;;;;;;3.70;2.80;;;;;;;32.46;24.40;97563.54;117274;1177;68593;-74
2021/09/27 10:45:12;;;;;;;4.00;3.30;;;;;;;32.81;23.41;97558.81;117397;1176;69047;-74
2021/09/27 10:47:46;;;;;;;3.30;2.90;;;;;;;33.14;23.27;97557.45;117329;1177;59491;-74
2021/09/27 10:50:24;;;;;;;3.40;3.00;;;;;;;33.70;22.24;97558.45;116987;1177;59583;-74
2021/09/27 10:52:53;;;;;;;;;;;;;;;34.04;21.70;97560.80;117405;1177;70474;-75
2021/09/27 10:55:50;;;;;;;4.30;3.20;;;;;;;34.35;21.62;97555.61;117377;1177;69205;-75
2021/09/27 10:58:37;;;;;;;3.40;3.00;;;;;;;34.76;22.47;97549.97;117164;1177;69232;-74
2021/09/27 11:01:08;;;;;;;3.20;2.70;;;;;;;35.19;21.01;97552.80;117310;1176;59534;-74
2021/09/27 11:03:42;;;;;;;3.80;3.30;;;;;;;35.49;20.69;97551.81;117327;1177;59516;-74
2021/09/27 11:06:27;;;;;;;3.10;2.80;;;;;;;34.97;20.65;97541.76;117266;1175;71438;-75
2021/09/27 11:09:12;;;;;;;3.30;3.00;;;;;;;35.05;20.64;97543.02;117277;1177;69044;-75
2021/09/27 11:11:54;;;;;;;4.50;3.10;;;;;;;34.86;20.95;97537.21;117346;1177;69059;-75
2021/09/27 11:14:28;;;;;;;4.60;3.60;;;;;;;34.25;21.18;97537.46;117225;1177;59526;-75
2021/09/27 11:17:14;;;;;;;4.50;3.50;;;;;;;34.07;22.00;97530.42;117174;1176;59464;-75
2021/09/27 11:19:44;;;;;;;4.60;2.80;;;;;;;34.89;20.76;97530.70;117342;1177;71279;-77
2021/09/27 11:22:13;;;;;;;6.10;3.60;;;;;;;35.36;20.33;97530.41;117335;1176;69289;-75
2021/09/27 11:24:42;;;;;;;;;;;;;;;34.60;20.99;97525.20;117282;1175;69241;-75
2021/09/27 11:27:18;;;;;;;4.00;3.00;;;;;;;35.15;20.79;97530.44;117211;1177;59535;-75
2021/09/27 11:29:52;;;;;;;3.30;2.90;;;;;;;35.65;19.59;97533.31;117241;1176;59553;-75
2021/09/27 11:32:31;;;;;;;3.90;3.50;;;;;;;34.05;21.06;97527.14;117344;1177;70541;-75
2021/09/27 11:35:08;;;;;;;4.10;3.00;;;;;;;34.52;21.20;97526.01;117180;1176;69183;-75
2021/09/27 11:37:43;;;;;;;3.80;3.10;;;;;;;34.47;21.32;97525.69;117062;1177;68349;-77
2021/09/27 11:40:15;;;;;;;3.70;2.90;;;;;;;34.37;21.59;97526.77;117209;1176;59512;-75
2021/09/27 11:42:56;;;;;;;3.20;2.80;;;;;;;34.84;20.94;97522.49;117199;1177;59521;-75
2021/09/27 11:45:35;;;;;;;3.00;2.70;;;;;;;35.50;19.98;97521.95;117295;1177;72083;-75
2021/09/27 11:48:18;;;;;;;3.40;3.00;;;;;;;36.29;20.31;97511.13;117316;1177;68576;-75
2021/09/27 11:51:01;;;;;;;5.10;3.70;;;;;;;37.01;19.26;97508.83;117122;1176;69372;-76
2021/09/27 11:53:46;;;;;;;4.60;3.20;;;;;;;36.38;19.01;97506.28;117169;1176;59602;-75
2021/09/27 11:56:34;;;;;;;4.50;3.50;;;;;;;37.01;19.23;97502.06;117026;1177;59509;-76
2021/09/27 11:59:03;;;;;;;;;;;;;;;36.67;18.45;97499.69;117227;1177;71257;-75
2021/09/27 12:01:56;;;;;;;3.60;3.20;;;;;;;36.39;18.82;97495.86;117249;1177;69295;-75
2021/09/27 12:04:54;;;;;;;3.50;2.90;;;;;;;36.23;19.01;97492.77;117231;1175;68465;-75
2021/09/27 12:07:39;;;;;;;5.40;3.20;;;;;;;36.38;18.98;97493.91;117142;1177;59536;-76
2021/09/27 12:10:23;;;;;;;3.50;3.00;;;;;;;35.41;19.94;97488.46;117116;1176;59540;-76
2021/09/27 12:12:59;;;;;;;4.20;3.60;;;;;;;35.40;19.22;97492.27;117143;1177;71238;-76
2021/09/27 12:15:37;;;;;;;3.70;3.30;;;;;;;33.55;21.21;97481.67;117144;1176;68791;-76
2021/09/27 12:18:07;;;;;;;3.50;2.60;;;;;;;34.02;21.39;97479.89;117279;1177;69016;-76
2021/09/27 12:20:40;;;;;;;4.60;3.70;;;;;;;34.56;20.74;97480.58;117174;1176;59529;-76
2021/09/27 12:23:11;;;;;;;4.60;3.40;;;;;;;34.17;20.98;97477.65;117196;1176;59537;-77
2021/09/27 12:25:43;;;;;;;4.00;3.20;;;;;;;35.35;20.39;97478.77;117290;1177;71478;-76
2021/09/27 12:28:23;;;;;;;4.10;3.00;;;;;;;36.09;19.20;97480.02;117245;1176;68501;-76
2021/09/27 12:31:02;;;;;;;3.40;2.80;;;;;;;36.61;18.98;97475.75;117092;1175;69375;-75
2021/09/27 12:33:40;;;;;;;2.90;2.60;;;;;;;37.07;18.57;97477.36;117145;1177;59561;-75